Hauptseite
METAR-TAF:

METAR-TAF

Flughäfen :

Flughafen Bamako

Bamako, Mali

Breite: 12-32N, Länge: 007-57W, Höhe: 380 m

Beobachtung

Neuester Wetterbericht von vor 21 Minuten, um 07:30 UTC
Wind 6 kt aus Nordost
Temperatur 20°C
Luftfeuchtigkeit 19%
Luftdruck 1015 hPa
Sichtweite 10 km oder mehr
keine Wolken unter 1500 m und keine Kumulonimbus oder Gewitterwolken

METAR: GABS 270730Z 05006KT CAVOK 20/M04 Q1015 NOSIG

Zeit: 07:51 (07:51 UTC)

Prognose

Neuester Wetterbericht von vor 2 Stunden und 51 Minuten, um 05:00 UTC
Gültige Prognose vom 27 um 06 UTC bis 28 um 12 UTC
Wind 10 kt aus Ost/Nordost, Böen bis zu 20 kt
Sichtweite: 8000 m

TAF: GABS 270500Z 2706/2812 06010G20KT 8000 NSC

Wetterbeobachtungen und Prognosen von mehr als 4000 Flughäfen (METAR und TAF Bericht).

Die verfügbaren Stationen werden durch gelbe und rote Markierungen auf der Karte dargestellt.

Führen Sie die Maus auf sie, um den Namen der Station zu sehen.

Darauf klicken, um die Beobachtung von Wetterbeobachtungen und Prognosen zu sehen.

Um die Karte zu ändern : klicken Sie auf den grünen Tasten mit einem schwarzen Kreuz Zum Vergrößern, auf den grünen Button mit einem Gedankenstrich zu verkleinern, oder auf die grünen Pfeile für benachbarte Karten.


METAR-TAF: